createdAt,value
2022-12-31T00:01:26.459Z,39.00
2022-12-31T00:03:56.441Z,40.50
2022-12-31T00:06:31.684Z,42.00
2022-12-31T00:09:07.248Z,41.00
2022-12-31T00:11:36.643Z,42.50
2022-12-31T00:14:07.335Z,42.00
2022-12-31T00:16:39.206Z,40.00
2022-12-31T00:19:11.628Z,41.00
2022-12-31T00:21:40.807Z,41.00
2022-12-31T00:24:12.907Z,39.00
2022-12-31T00:26:49.168Z,43.00
2022-12-31T00:29:18.207Z,41.00
2022-12-31T00:31:55.298Z,43.00
2022-12-31T00:34:25.346Z,41.00
2022-12-31T00:36:55.565Z,43.00
2022-12-31T00:39:32.187Z,37.00
2022-12-31T00:44:37.020Z,37.00
2022-12-31T00:47:05.174Z,41.00
2022-12-31T00:52:03.214Z,36.00
2022-12-31T00:54:32.155Z,36.00
2022-12-31T00:59:31.403Z,30.00
2022-12-31T01:01:59.418Z,36.00
2022-12-31T01:04:29.524Z,33.00
2022-12-31T01:06:57.542Z,35.00
2022-12-31T01:09:31.272Z,32.00
2022-12-31T01:12:00.281Z,30.00
2022-12-31T01:14:28.319Z,30.00
2022-12-31T01:16:56.513Z,30.00
2022-12-31T01:22:06.096Z,28.00
2022-12-31T01:24:35.076Z,29.00
2022-12-31T01:27:04.148Z,28.00
2022-12-31T01:29:37.103Z,20.00
2022-12-31T01:32:05.474Z,26.00
2022-12-31T01:42:12.257Z,21.00
2022-12-31T01:44:51.267Z,24.00
2022-12-31T01:47:34.718Z,22.50
2022-12-31T01:52:56.816Z,22.00
2022-12-31T01:55:50.629Z,24.00
2022-12-31T01:58:34.968Z,24.50
2022-12-31T02:03:40.388Z,21.00
2022-12-31T02:06:39.314Z,22.00
2022-12-31T02:09:07.974Z,20.00
2022-12-31T02:11:38.174Z,21.00
2022-12-31T02:16:55.620Z,18.50
2022-12-31T02:19:48.351Z,20.50
2022-12-31T02:22:41.629Z,22.00
2022-12-31T02:25:18.021Z,15.00
2022-12-31T02:28:18.241Z,15.00
2022-12-31T02:30:52.495Z,20.50
2022-12-31T02:33:35.535Z,20.00
2022-12-31T02:36:10.824Z,18.50
2022-12-31T02:41:36.472Z,17.00
2022-12-31T02:44:29.268Z,15.00
2022-12-31T02:47:08.181Z,15.50
2022-12-31T02:50:10.962Z,17.50
2022-12-31T02:55:24.027Z,16.00
2022-12-31T02:58:14.516Z,15.00
2022-12-31T03:01:10.473Z,14.00
2022-12-31T03:03:46.093Z,15.00
2022-12-31T03:06:15.666Z,14.00
2022-12-31T03:09:03.223Z,14.50
2022-12-31T03:14:20.114Z,16.00
2022-12-31T03:16:49.286Z,16.00
2022-12-31T03:19:39.932Z,21.00
2022-12-31T03:22:29.354Z,17.00
2022-12-31T03:27:52.605Z,17.00
2022-12-31T03:37:58.119Z,13.00
2022-12-31T03:40:29.070Z,18.00
2022-12-31T03:42:59.268Z,15.00
2022-12-31T03:45:28.365Z,16.00
2022-12-31T03:47:56.248Z,14.00
2022-12-31T03:50:25.743Z,14.00
2022-12-31T03:52:53.903Z,15.00
2022-12-31T03:55:21.830Z,18.00
2022-12-31T03:57:49.927Z,15.00
2022-12-31T04:00:20.444Z,15.50
2022-12-31T04:02:49.828Z,15.00
2022-12-31T04:05:26.370Z,16.00
2022-12-31T04:07:56.692Z,15.00
2022-12-31T04:13:26.075Z,18.00
2022-12-31T04:15:56.356Z,13.00
2022-12-31T04:18:33.065Z,14.00
2022-12-31T04:21:35.345Z,15.00
2022-12-31T04:24:03.992Z,15.00
2022-12-31T04:26:32.090Z,15.00
2022-12-31T04:31:36.751Z,15.00
2022-12-31T04:34:10.130Z,13.50
2022-12-31T04:36:39.174Z,16.00
2022-12-31T04:39:16.096Z,13.50
2022-12-31T04:41:50.408Z,11.00
2022-12-31T04:44:23.182Z,15.00
2022-12-31T04:46:56.143Z,15.50
2022-12-31T04:49:24.160Z,13.00
2022-12-31T04:51:53.124Z,13.00
2022-12-31T04:54:21.235Z,13.50
2022-12-31T04:56:54.488Z,11.00
2022-12-31T04:59:22.586Z,11.00
2022-12-31T05:01:51.634Z,14.00
2022-12-31T05:04:27.149Z,11.00
2022-12-31T05:06:55.123Z,13.00
2022-12-31T05:09:27.569Z,9.00
2022-12-31T05:11:57.695Z,12.00
2022-12-31T05:14:25.804Z,12.00
2022-12-31T05:16:54.766Z,14.50
2022-12-31T05:19:30.117Z,15.00
2022-12-31T05:24:45.865Z,12.00
2022-12-31T05:27:15.968Z,14.00
2022-12-31T05:32:17.443Z,21.00
2022-12-31T05:34:51.146Z,15.00
2022-12-31T05:37:21.267Z,14.00
2022-12-31T05:39:54.066Z,12.00
2022-12-31T05:42:23.326Z,10.00
2022-12-31T05:44:56.124Z,12.00
2022-12-31T05:47:25.887Z,14.00
2022-12-31T05:52:23.070Z,10.00
2022-12-31T06:04:44.752Z,9.00
2022-12-31T06:07:13.946Z,12.50
2022-12-31T06:09:48.136Z,12.00
2022-12-31T06:12:16.276Z,12.00
2022-12-31T06:14:47.967Z,13.00
2022-12-31T06:17:16.128Z,11.50
2022-12-31T06:19:44.147Z,11.50
2022-12-31T06:22:12.090Z,13.00
2022-12-31T06:34:36.968Z,10.00
2022-12-31T06:37:07.151Z,13.00
2022-12-31T06:42:04.490Z,12.50
2022-12-31T06:44:32.583Z,8.00
2022-12-31T06:47:01.620Z,11.00
2022-12-31T06:51:58.460Z,11.50
2022-12-31T06:54:27.614Z,10.00
2022-12-31T06:59:35.433Z,12.00
2022-12-31T07:02:29.735Z,13.00
2022-12-31T07:05:07.964Z,11.00
2022-12-31T07:07:56.270Z,15.00
2022-12-31T07:10:45.118Z,10.00
2022-12-31T07:13:48.095Z,15.00
2022-12-31T07:16:30.044Z,15.00
2022-12-31T07:21:39.880Z,11.00
2022-12-31T07:24:10.357Z,11.00
2022-12-31T07:26:56.125Z,13.00
2022-12-31T07:29:47.125Z,12.00
2022-12-31T07:35:15.192Z,14.00
2022-12-31T07:38:08.460Z,15.00
2022-12-31T07:40:44.090Z,12.00
2022-12-31T07:43:35.689Z,12.00
2022-12-31T07:46:25.564Z,12.00
2022-12-31T07:53:58.251Z,12.00
2022-12-31T07:56:26.207Z,11.00
2022-12-31T08:01:51.710Z,7.50
2022-12-31T08:04:28.187Z,10.00
2022-12-31T08:07:42.227Z,13.00
2022-12-31T08:10:29.751Z,10.00
2022-12-31T08:17:59.557Z,10.00
2022-12-31T08:20:48.745Z,11.50
2022-12-31T08:23:56.768Z,12.00
2022-12-31T08:26:52.609Z,14.00
2022-12-31T08:29:35.922Z,11.00
2022-12-31T08:32:24.713Z,11.00
2022-12-31T08:35:15.120Z,10.00
2022-12-31T08:37:57.033Z,9.00
2022-12-31T08:40:50.432Z,11.00
2022-12-31T08:43:57.489Z,10.00
2022-12-31T08:47:03.607Z,12.00
2022-12-31T08:49:37.367Z,0.00
2022-12-31T08:54:42.424Z,8.00
2022-12-31T08:57:16.908Z,9.00
2022-12-31T09:00:13.413Z,11.00
2022-12-31T09:03:06.585Z,9.00
2022-12-31T09:05:58.780Z,11.00
2022-12-31T09:11:36.826Z,9.00
2022-12-31T09:14:20.610Z,10.00
2022-12-31T09:17:03.424Z,15.00
2022-12-31T09:19:32.590Z,10.00
2022-12-31T09:22:01.297Z,7.00
2022-12-31T09:24:36.581Z,10.00
2022-12-31T09:27:27.484Z,9.00
2022-12-31T09:30:12.689Z,11.00
2022-12-31T09:33:07.835Z,11.00
2022-12-31T09:35:54.363Z,11.00
2022-12-31T09:38:34.636Z,13.00
2022-12-31T09:41:45.949Z,15.00
2022-12-31T09:44:52.568Z,11.00
2022-12-31T09:47:48.683Z,7.00
2022-12-31T09:53:19.303Z,11.00
2022-12-31T09:56:03.683Z,11.50
2022-12-31T09:58:49.962Z,10.00
2022-12-31T10:04:25.164Z,12.00
2022-12-31T10:07:17.384Z,12.00
2022-12-31T10:12:35.732Z,9.00
2022-12-31T10:15:41.794Z,11.00
2022-12-31T10:18:33.051Z,9.00
2022-12-31T10:21:20.028Z,11.00
2022-12-31T10:24:20.263Z,13.00
2022-12-31T10:26:53.076Z,13.00
2022-12-31T10:29:28.773Z,12.00
2022-12-31T10:32:15.629Z,14.00
2022-12-31T10:34:54.781Z,13.00
2022-12-31T10:37:41.005Z,12.00
2022-12-31T10:46:13.372Z,10.00
2022-12-31T10:49:02.670Z,9.00
2022-12-31T10:52:11.791Z,9.00
2022-12-31T10:55:26.464Z,7.00
2022-12-31T11:01:10.737Z,10.00
2022-12-31T11:04:05.664Z,8.00
2022-12-31T11:09:31.343Z,9.00
2022-12-31T11:12:28.884Z,6.00
2022-12-31T11:15:50.046Z,7.00
2022-12-31T11:18:34.057Z,9.00
2022-12-31T11:24:14.785Z,9.00
2022-12-31T11:27:21.633Z,8.00
2022-12-31T11:30:35.659Z,11.00
2022-12-31T11:33:07.029Z,14.00
2022-12-31T11:36:00.595Z,8.50
2022-12-31T11:38:36.089Z,9.00
2022-12-31T11:41:19.491Z,13.00
2022-12-31T11:44:15.364Z,7.00
2022-12-31T11:47:12.360Z,9.00
2022-12-31T11:50:03.294Z,9.00
2022-12-31T11:55:30.393Z,6.00
2022-12-31T12:00:32.217Z,3.00
2022-12-31T12:03:07.576Z,8.00
2022-12-31T12:05:40.712Z,6.00
2022-12-31T12:10:48.014Z,9.00
2022-12-31T12:13:28.119Z,7.00
2022-12-31T12:16:00.582Z,7.00
2022-12-31T12:18:46.270Z,3.50
2022-12-31T12:21:25.458Z,7.00
2022-12-31T12:23:55.668Z,7.00
2022-12-31T12:26:37.291Z,8.00
2022-12-31T12:29:20.726Z,9.00
2022-12-31T12:31:58.120Z,5.00
2022-12-31T12:34:29.854Z,10.00
2022-12-31T12:37:21.841Z,10.00
2022-12-31T12:40:04.675Z,9.00
2022-12-31T12:42:32.750Z,6.00
2022-12-31T12:47:56.746Z,9.00
2022-12-31T12:50:39.536Z,11.50
2022-12-31T12:58:34.662Z,10.50
2022-12-31T13:01:37.013Z,6.00
2022-12-31T13:04:51.269Z,9.00
2022-12-31T13:07:54.360Z,10.00
2022-12-31T13:10:49.038Z,11.00
2022-12-31T13:13:27.411Z,7.00
2022-12-31T13:16:14.344Z,10.00
2022-12-31T13:18:43.381Z,9.00
2022-12-31T13:21:28.229Z,10.50
2022-12-31T13:29:17.236Z,11.00
2022-12-31T13:33:00.999Z,12.50
2022-12-31T13:35:48.348Z,12.00
2022-12-31T13:38:29.601Z,12.50
2022-12-31T13:41:13.095Z,10.50
2022-12-31T13:44:15.008Z,12.00
2022-12-31T13:46:54.099Z,12.00
2022-12-31T13:49:31.710Z,14.00
2022-12-31T13:52:18.980Z,15.00
2022-12-31T13:55:04.609Z,15.00
2022-12-31T13:57:54.914Z,19.00
2022-12-31T14:00:33.777Z,13.00
2022-12-31T14:03:19.861Z,13.00
2022-12-31T14:06:30.388Z,11.00
2022-12-31T14:08:59.190Z,10.00
2022-12-31T14:14:42.425Z,16.00
2022-12-31T14:17:33.212Z,18.00
2022-12-31T14:23:35.691Z,15.00
2022-12-31T14:26:40.418Z,19.00
2022-12-31T14:29:11.588Z,16.50
2022-12-31T14:31:48.191Z,13.00
2022-12-31T14:34:43.273Z,14.50
2022-12-31T14:43:15.987Z,15.00
2022-12-31T14:46:00.960Z,13.00
2022-12-31T14:48:28.923Z,12.00
2022-12-31T14:51:03.276Z,11.50
2022-12-31T14:53:32.555Z,15.00
2022-12-31T14:56:07.443Z,16.00
2022-12-31T15:01:22.563Z,14.00
2022-12-31T15:03:58.040Z,15.00
2022-12-31T15:06:47.437Z,11.00
2022-12-31T15:09:40.560Z,14.00
2022-12-31T15:12:38.852Z,14.00
2022-12-31T15:15:36.191Z,11.00
2022-12-31T15:18:27.316Z,15.50
2022-12-31T15:21:33.213Z,9.00
2022-12-31T15:24:30.943Z,23.00
2022-12-31T15:32:07.867Z,12.00
2022-12-31T15:34:43.181Z,14.00
2022-12-31T15:37:35.561Z,14.00
2022-12-31T15:40:25.157Z,11.00
2022-12-31T15:43:02.952Z,15.00
2022-12-31T15:45:39.661Z,15.00
2022-12-31T15:48:22.194Z,12.00
2022-12-31T15:50:56.745Z,15.00
2022-12-31T15:53:29.847Z,12.00
2022-12-31T15:56:45.359Z,11.00
2022-12-31T15:59:21.124Z,13.00
2022-12-31T16:01:50.807Z,15.00
2022-12-31T16:04:23.050Z,15.00
2022-12-31T16:07:03.313Z,14.00
2022-12-31T16:09:36.125Z,13.50
2022-12-31T16:12:16.059Z,14.00
2022-12-31T16:14:50.599Z,12.67
2022-12-31T16:17:33.039Z,13.00
2022-12-31T16:20:22.329Z,13.00
2022-12-31T16:22:56.493Z,17.00
2022-12-31T16:25:33.883Z,16.50
2022-12-31T16:28:04.011Z,18.00
2022-12-31T16:30:36.130Z,18.00
2022-12-31T16:33:14.582Z,17.00
2022-12-31T16:41:00.994Z,18.50
2022-12-31T16:43:35.853Z,16.00
2022-12-31T16:46:27.188Z,16.00
2022-12-31T16:49:00.301Z,15.00
2022-12-31T16:51:32.579Z,12.00
2022-12-31T16:54:02.409Z,17.00
2022-12-31T16:56:41.900Z,14.00
2022-12-31T16:59:41.215Z,8.00
2022-12-31T17:02:25.644Z,16.00
2022-12-31T17:07:54.861Z,18.00
2022-12-31T17:10:36.660Z,16.50
2022-12-31T17:13:29.056Z,16.00
2022-12-31T17:18:38.858Z,17.00
2022-12-31T17:23:53.580Z,16.00
2022-12-31T17:26:31.233Z,14.50
2022-12-31T17:31:39.225Z,13.00
2022-12-31T17:34:14.542Z,13.00
2022-12-31T17:37:18.614Z,14.50
2022-12-31T17:39:53.745Z,13.00
2022-12-31T17:42:33.945Z,16.00
2022-12-31T17:45:19.989Z,17.00
2022-12-31T17:50:26.162Z,20.00
2022-12-31T17:55:48.379Z,17.00
2022-12-31T17:58:38.307Z,15.50
2022-12-31T18:01:16.148Z,16.00
2022-12-31T18:03:50.208Z,17.00
2022-12-31T18:06:21.881Z,16.00
2022-12-31T18:08:57.072Z,16.00
2022-12-31T18:11:26.183Z,16.00
2022-12-31T18:19:01.564Z,15.50
2022-12-31T18:22:01.879Z,14.00
2022-12-31T18:26:59.857Z,11.00
2022-12-31T18:29:27.827Z,16.00
2022-12-31T18:31:57.830Z,12.00
2022-12-31T18:34:27.872Z,13.50
2022-12-31T18:36:58.062Z,13.00
2022-12-31T18:39:27.100Z,15.50
2022-12-31T18:41:56.219Z,13.00
2022-12-31T18:49:31.221Z,15.00
2022-12-31T18:52:00.310Z,17.00
2022-12-31T18:54:29.455Z,16.50
2022-12-31T18:56:59.645Z,23.00
2022-12-31T18:59:28.711Z,15.00
2022-12-31T19:04:31.160Z,21.00
2022-12-31T19:07:00.250Z,15.50
2022-12-31T19:09:45.052Z,16.00
2022-12-31T19:12:15.585Z,11.00
2022-12-31T19:14:48.047Z,14.00
2022-12-31T19:17:22.074Z,12.00
2022-12-31T19:22:21.022Z,13.50
2022-12-31T19:27:27.032Z,17.50
2022-12-31T19:29:57.219Z,14.00
2022-12-31T19:32:26.229Z,13.00
2022-12-31T19:37:22.249Z,11.00
2022-12-31T19:42:20.312Z,14.00
2022-12-31T19:44:50.615Z,17.00
2022-12-31T19:47:19.687Z,13.00
2022-12-31T19:49:47.734Z,15.00
2022-12-31T19:54:49.032Z,13.00
2022-12-31T19:57:18.051Z,12.00
2022-12-31T20:02:21.291Z,13.00
2022-12-31T20:04:57.125Z,15.00
2022-12-31T20:07:27.198Z,13.00
2022-12-31T20:10:05.526Z,11.00
2022-12-31T20:15:16.449Z,12.50
2022-12-31T20:20:24.066Z,9.00
2022-12-31T20:25:29.067Z,11.00
2022-12-31T20:27:59.102Z,13.00
2022-12-31T20:30:27.850Z,14.00
2022-12-31T20:40:29.055Z,7.00
2022-12-31T20:42:58.044Z,12.00
2022-12-31T20:48:01.192Z,11.00
2022-12-31T20:50:29.062Z,12.00
2022-12-31T20:53:04.217Z,12.50
2022-12-31T20:55:32.580Z,5.00
2022-12-31T20:58:06.453Z,9.00
2022-12-31T21:00:34.458Z,10.00
2022-12-31T21:03:23.789Z,11.00
2022-12-31T21:05:56.345Z,9.00
2022-12-31T21:08:29.633Z,11.00
2022-12-31T21:13:32.282Z,12.00
2022-12-31T21:16:00.277Z,10.00
2022-12-31T21:18:28.265Z,12.00
2022-12-31T21:21:00.712Z,12.00
2022-12-31T21:23:32.286Z,10.00
2022-12-31T21:26:01.466Z,10.00
2022-12-31T21:28:37.195Z,9.50
2022-12-31T21:41:08.682Z,15.00
2022-12-31T21:43:41.080Z,13.00
2022-12-31T21:48:41.081Z,11.00
2022-12-31T21:51:15.369Z,10.50
2022-12-31T21:53:44.434Z,12.00
2022-12-31T21:56:21.681Z,13.00
2022-12-31T21:59:17.352Z,11.00
2022-12-31T22:02:09.015Z,11.00
2022-12-31T22:07:28.563Z,12.00
2022-12-31T22:09:58.648Z,16.00
2022-12-31T22:12:27.808Z,12.00
2022-12-31T22:15:14.419Z,12.00
2022-12-31T22:17:51.095Z,13.00
2022-12-31T22:20:29.329Z,11.00
2022-12-31T22:23:31.120Z,11.50
2022-12-31T22:28:39.160Z,12.00
2022-12-31T22:31:15.136Z,13.00
2022-12-31T22:33:45.904Z,11.00
2022-12-31T22:39:43.255Z,13.00
2022-12-31T22:42:15.133Z,11.50
2022-12-31T22:44:44.167Z,13.50
2022-12-31T22:47:13.168Z,15.00
2022-12-31T22:49:41.188Z,13.00
2022-12-31T22:52:09.194Z,11.50
2022-12-31T22:54:37.232Z,15.00
2022-12-31T22:59:35.567Z,16.00
2022-12-31T23:07:00.049Z,55.00
2022-12-31T23:09:46.950Z,59.50
2022-12-31T23:12:17.215Z,47.00
2022-12-31T23:15:37.960Z,35.50
2022-12-31T23:18:32.958Z,30.00
2022-12-31T23:27:04.186Z,31.00
2022-12-31T23:30:13.324Z,53.00
2022-12-31T23:37:42.193Z,32.00
2022-12-31T23:42:52.235Z,34.00
2022-12-31T23:45:21.436Z,33.00
2022-12-31T23:53:28.173Z,25.00
2022-12-31T23:56:13.028Z,26.00
2022-12-31T23:58:49.133Z,26.00
